Jonni Ritscher — A8JT7 — position and weather

sailwx.info

Track history (hours):
 
Tides and Currents Weather Stations Pressure Air Temp Water Temp Dewpoint Dewpoint Depression Visibility Wind Speed Wind Dir Waves Ship Positions

Jonni Ritscher

Last reported at 2016-Jan-23 03:33 UTC. Time now 2016-Feb-13 04:37 UTC.
Position N 29°25' W 094°50'.
Warning: this ship's position is 21 days out of date.

Length 178 m; draft 10.4 m.

Type: Ship. MMSI: 636091136.

Date/timePositionNaut miles runAvg speedWind from/ knotsBaromVisibWave heightAir tempDewpointWater temp
2016-Jan-23 03:33N 29°25' W 094°50'1212.3
2016-Jan-23 02:33N 29°36' W 094°57'3 3.5
2016-Jan-23 01:33N 29°37' W 095°00'0 0.0
2016-Jan-23 00:33N 29°37' W 095°00'0 0.0
2016-Jan-22 23:33N 29°37' W 095°00'0 0.0
2016-Jan-22 22:32N 29°37' W 095°00'0 0.0
2016-Jan-22 21:32N 29°37' W 095°00'0 0.0
2016-Jan-22 20:31N 29°37' W 095°00'0 0.0
2016-Jan-22 19:31N 29°37' W 095°00'0 0.0
2016-Jan-22 18:33N 29°37' W 095°00'0 0.0
2016-Jan-22 17:30N 29°37' W 095°00'0 0.0
2016-Jan-22 16:30N 29°37' W 095°00'0 0.0
2016-Jan-22 15:32N 29°37' W 095°00'0 0.0
2016-Jan-22 14:32N 29°37' W 095°00'0 0.0
2016-Jan-22 13:28N 29°37' W 095°00'0 0.0
2016-Jan-22 12:31N 29°37' W 095°00'0 0.0
2016-Jan-22 11:33N 29°37' W 095°00'0 0.0
2016-Jan-22 10:33N 29°37' W 095°00'0 0.0
2016-Jan-22 09:33N 29°37' W 095°00'2 1.8
2016-Jan-22 08:33N 29°37' W 094°58'1111.1
2016-Jan-22 07:33N 29°28' W 094°51'  
2016-Jan-18 05:23N 19°43' W 096°09'1213.9
2016-Jan-18 04:32N 19°32' W 096°04'1414.0
2016-Jan-18 03:33N 19°19' W 095°58'1010.3
2016-Jan-18 02:33N 19°12' W 096°05'3 3.1
2016-Jan-18 01:33N 19°13' W 096°08'0 0.0
2016-Jan-18 00:33N 19°13' W 096°08'0 0.0
2016-Jan-17 23:33N 19°13' W 096°08'0 0.0
2016-Jan-17 22:33N 19°13' W 096°08'0 0.0
2016-Jan-17 21:32N 19°13' W 096°08'0 0.0
2016-Jan-17 20:32N 19°13' W 096°08'0 0.0
2016-Jan-17 19:31N 19°13' W 096°08'0 0.0
2016-Jan-17 18:31N 19°13' W 096°08'0 0.3
2016-Jan-17 17:33N 19°12' W 096°08'8 8.3
2016-Jan-17 16:33N 19°13' W 095°59'1110.7
2016-Jan-17 15:33N 19°15' W 095°48'9 8.7
2016-Jan-17 14:28N 19°18' W 095°39'  
Track history (hours):
 
Tides and Currents Weather Stations Pressure Air Temp Water Temp Dewpoint Dewpoint Depression Visibility Wind Speed Wind Dir Waves Ship Positions

Jonni Ritscher

Last reported at 2016-Jan-23 03:33 UTC. Time now 2016-Feb-13 04:37 UTC.
Position N 29°25' W 094°50'.
Warning: this ship's position is 21 days out of date.

Length 178 m; draft 10.4 m.

Type: Ship. MMSI: 636091136.

Date/timePositionNaut miles runAvg speedWind from/ knotsBaromVisibWave heightAir tempDewpointWater temp
2016-Jan-23 03:33N 29°25' W 094°50'1212.3
2016-Jan-23 02:33N 29°36' W 094°57'3 3.5
2016-Jan-23 01:33N 29°37' W 095°00'0 0.0
2016-Jan-23 00:33N 29°37' W 095°00'0 0.0
2016-Jan-22 23:33N 29°37' W 095°00'0 0.0
2016-Jan-22 22:32N 29°37' W 095°00'0 0.0
2016-Jan-22 21:32N 29°37' W 095°00'0 0.0
2016-Jan-22 20:31N 29°37' W 095°00'0 0.0
2016-Jan-22 19:31N 29°37' W 095°00'0 0.0
2016-Jan-22 18:33N 29°37' W 095°00'0 0.0
2016-Jan-22 17:30N 29°37' W 095°00'0 0.0
2016-Jan-22 16:30N 29°37' W 095°00'0 0.0
2016-Jan-22 15:32N 29°37' W 095°00'0 0.0
2016-Jan-22 14:32N 29°37' W 095°00'0 0.0
2016-Jan-22 13:28N 29°37' W 095°00'0 0.0
2016-Jan-22 12:31N 29°37' W 095°00'0 0.0
2016-Jan-22 11:33N 29°37' W 095°00'0 0.0
2016-Jan-22 10:33N 29°37' W 095°00'0 0.0
2016-Jan-22 09:33N 29°37' W 095°00'2 1.8
2016-Jan-22 08:33N 29°37' W 094°58'1111.1
2016-Jan-22 07:33N 29°28' W 094°51'  
2016-Jan-18 05:23N 19°43' W 096°09'1213.9
2016-Jan-18 04:32N 19°32' W 096°04'1414.0
2016-Jan-18 03:33N 19°19' W 095°58'1010.3
2016-Jan-18 02:33N 19°12' W 096°05'3 3.1
2016-Jan-18 01:33N 19°13' W 096°08'0 0.0
2016-Jan-18 00:33N 19°13' W 096°08'0 0.0
2016-Jan-17 23:33N 19°13' W 096°08'0 0.0
2016-Jan-17 22:33N 19°13' W 096°08'0 0.0
2016-Jan-17 21:32N 19°13' W 096°08'0 0.0
2016-Jan-17 20:32N 19°13' W 096°08'0 0.0
2016-Jan-17 19:31N 19°13' W 096°08'0 0.0
2016-Jan-17 18:31N 19°13' W 096°08'0 0.3
2016-Jan-17 17:33N 19°12' W 096°08'8 8.3
2016-Jan-17 16:33N 19°13' W 095°59'1110.7
2016-Jan-17 15:33N 19°15' W 095°48'9 8.7
2016-Jan-17 14:28N 19°18' W 095°39'  

Dump ship's entire track history